createdAt,value
2023-05-20T00:00:02.487Z,9
2023-05-20T00:01:03.296Z,8
2023-05-20T00:02:03.160Z,8
2023-05-20T00:03:03.272Z,8
2023-05-20T00:04:03.540Z,9
2023-05-20T00:05:03.089Z,8
2023-05-20T00:06:02.731Z,8
2023-05-20T00:07:02.602Z,8
2023-05-20T00:08:02.513Z,8
2023-05-20T00:09:02.639Z,8
2023-05-20T00:10:02.629Z,8
2023-05-20T00:11:03.351Z,8
2023-05-20T00:12:03.214Z,8
2023-05-20T00:13:03.138Z,8
2023-05-20T00:14:03.051Z,8
2023-05-20T00:15:03.237Z,8
2023-05-20T00:16:02.888Z,8
2023-05-20T00:17:02.909Z,8
2023-05-20T00:18:02.916Z,8
2023-05-20T00:19:02.939Z,8
2023-05-20T00:20:02.898Z,8
2023-05-20T00:21:02.890Z,8
2023-05-20T00:22:03.064Z,8
2023-05-20T00:23:03.077Z,8
2023-05-20T00:24:02.827Z,8
2023-05-20T00:25:03.034Z,8
2023-05-20T00:26:02.799Z,8
2023-05-20T00:27:02.684Z,8
2023-05-20T00:28:02.619Z,8
2023-05-20T00:29:02.547Z,8
2023-05-20T00:30:02.535Z,8
2023-05-20T00:31:03.174Z,8
2023-05-20T00:32:02.872Z,9
2023-05-20T00:33:02.922Z,8
2023-05-20T00:34:03.027Z,8
2023-05-20T00:35:02.841Z,8
2023-05-20T00:36:03.637Z,8
2023-05-20T00:37:03.671Z,8
2023-05-20T00:38:03.589Z,8
2023-05-20T00:39:03.509Z,8
2023-05-20T00:40:03.481Z,8
2023-05-20T00:41:03.267Z,8
2023-05-20T00:42:03.166Z,8
2023-05-20T00:43:03.134Z,8
2023-05-20T00:44:03.173Z,8
2023-05-20T00:45:03.007Z,8
2023-05-20T00:46:02.868Z,8
2023-05-20T00:47:02.646Z,8
2023-05-20T00:48:02.484Z,8
2023-05-20T00:49:02.594Z,8
2023-05-20T00:50:02.549Z,8
2023-05-20T00:51:03.202Z,8
2023-05-20T00:52:03.006Z,8
2023-05-20T00:53:02.776Z,8
2023-05-20T00:54:02.794Z,8
2023-05-20T00:55:02.875Z,8
2023-05-20T00:56:03.546Z,8
2023-05-20T00:57:03.617Z,8
2023-05-20T00:58:03.462Z,8
2023-05-20T00:59:03.623Z,8
2023-05-20T01:00:03.348Z,8
2023-05-20T01:01:02.783Z,8
2023-05-20T01:02:02.472Z,8
2023-05-20T01:03:02.689Z,8
2023-05-20T01:04:02.543Z,8
2023-05-20T01:05:02.494Z,8
2023-05-20T01:06:03.209Z,8
2023-05-20T01:07:03.058Z,8
2023-05-20T01:08:03.064Z,8
2023-05-20T01:09:03.081Z,8
2023-05-20T01:10:03.121Z,8
2023-05-20T01:11:02.782Z,8
2023-05-20T01:12:02.602Z,8
2023-05-20T01:13:02.635Z,8
2023-05-20T01:14:02.523Z,8
2023-05-20T01:15:02.583Z,8
2023-05-20T01:16:02.526Z,8
2023-05-20T01:17:02.960Z,8
2023-05-20T01:18:02.648Z,8
2023-05-20T01:19:02.903Z,8
2023-05-20T01:20:02.948Z,8
2023-05-20T01:21:03.445Z,8
2023-05-20T01:22:03.118Z,8
2023-05-20T01:23:03.357Z,8
2023-05-20T01:24:03.344Z,8
2023-05-20T01:25:03.077Z,8
2023-05-20T01:26:03.135Z,8
2023-05-20T01:27:03.161Z,8
2023-05-20T01:28:03.096Z,8
2023-05-20T01:29:03.705Z,8
2023-05-20T01:30:03.123Z,8
2023-05-20T01:31:03.769Z,8
2023-05-20T01:32:03.626Z,8
2023-05-20T01:33:03.325Z,8
2023-05-20T01:34:03.288Z,9
2023-05-20T01:35:03.234Z,8
2023-05-20T01:36:02.281Z,9
2023-05-20T01:37:02.762Z,8
2023-05-20T01:38:02.763Z,8
2023-05-20T01:39:02.749Z,8
2023-05-20T01:40:02.719Z,8
2023-05-20T01:41:02.637Z,8
2023-05-20T01:42:03.259Z,8
2023-05-20T01:43:02.931Z,8
2023-05-20T01:44:02.895Z,8
2023-05-20T01:45:02.825Z,8
2023-05-20T01:46:02.783Z,9
2023-05-20T01:47:03.536Z,8
2023-05-20T01:48:03.114Z,8
2023-05-20T01:49:02.813Z,8
2023-05-20T01:50:02.860Z,9
2023-05-20T01:51:03.163Z,8
2023-05-20T01:52:03.153Z,8
2023-05-20T01:53:03.130Z,8
2023-05-20T01:54:03.151Z,8
2023-05-20T01:55:03.173Z,9
2023-05-20T01:56:02.184Z,8
2023-05-20T01:57:02.432Z,8
2023-05-20T01:58:02.614Z,8
2023-05-20T01:59:02.536Z,8
2023-05-20T02:00:02.277Z,9
2023-05-20T02:01:02.356Z,9
2023-05-20T02:02:02.312Z,8
2023-05-20T02:03:02.978Z,9
2023-05-20T02:04:02.700Z,8
2023-05-20T02:05:02.732Z,8
2023-05-20T02:06:02.964Z,9
2023-05-20T02:07:03.029Z,9
2023-05-20T02:08:03.104Z,9
2023-05-20T02:09:03.017Z,8
2023-05-20T02:10:03.064Z,9
2023-05-20T02:11:02.278Z,8
2023-05-20T02:12:02.207Z,9
2023-05-20T02:13:02.596Z,8
2023-05-20T02:14:02.468Z,8
2023-05-20T02:15:02.419Z,8
2023-05-20T02:16:02.436Z,9
2023-05-20T02:17:02.289Z,8
2023-05-20T02:18:02.324Z,8
2023-05-20T02:19:02.881Z,8
2023-05-20T02:20:02.896Z,9
2023-05-20T02:21:02.594Z,8
2023-05-20T02:22:02.547Z,8
2023-05-20T02:23:02.461Z,8
2023-05-20T02:24:03.020Z,9
2023-05-20T02:25:02.489Z,8
2023-05-20T02:26:03.071Z,9
2023-05-20T02:27:03.672Z,8
2023-05-20T02:28:03.274Z,9
2023-05-20T02:29:03.190Z,9
2023-05-20T02:30:03.069Z,8
2023-05-20T02:31:02.697Z,8
2023-05-20T02:32:02.707Z,8
2023-05-20T02:33:02.933Z,9
2023-05-20T02:34:02.571Z,8
2023-05-20T02:35:03.120Z,9
2023-05-20T02:36:02.763Z,8
2023-05-20T02:37:02.676Z,9
2023-05-20T02:38:03.248Z,9
2023-05-20T02:39:03.011Z,9
2023-05-20T02:40:02.903Z,8
2023-05-20T02:41:02.773Z,9
2023-05-20T02:42:02.695Z,9
2023-05-20T02:43:03.096Z,9
2023-05-20T02:44:03.179Z,9
2023-05-20T02:45:02.954Z,9
2023-05-20T02:46:02.910Z,9
2023-05-20T02:47:02.772Z,9
2023-05-20T02:48:02.723Z,9
2023-05-20T02:49:02.696Z,9
2023-05-20T02:50:03.241Z,9
2023-05-20T02:51:02.323Z,9
2023-05-20T02:52:02.302Z,9
2023-05-20T02:53:02.566Z,9
2023-05-20T02:54:02.583Z,9
2023-05-20T02:55:02.604Z,9
2023-05-20T02:56:02.697Z,9
2023-05-20T02:57:02.644Z,9
2023-05-20T02:58:02.639Z,9
2023-05-20T02:59:02.592Z,9
2023-05-20T03:00:02.681Z,9
2023-05-20T03:01:01.762Z,9
2023-05-20T03:02:01.530Z,9
2023-05-20T03:03:02.082Z,9
2023-05-20T03:04:01.699Z,9
2023-05-20T03:05:01.763Z,9
2023-05-20T03:06:01.733Z,9
2023-05-20T03:07:01.676Z,9
2023-05-20T03:08:01.592Z,9
2023-05-20T03:09:01.586Z,9
2023-05-20T03:10:01.773Z,9
2023-05-20T03:11:01.655Z,9
2023-05-20T03:12:01.617Z,9
2023-05-20T03:13:01.538Z,9
2023-05-20T03:14:02.140Z,9
2023-05-20T03:15:01.891Z,9
2023-05-20T03:16:01.970Z,9
2023-05-20T03:17:01.858Z,9
2023-05-20T03:18:01.910Z,9
2023-05-20T03:19:01.825Z,9
2023-05-20T03:20:01.919Z,9
2023-05-20T03:21:02.625Z,9
2023-05-20T03:22:02.550Z,9
2023-05-20T03:23:02.478Z,9
2023-05-20T03:24:02.428Z,9
2023-05-20T03:25:02.794Z,9
2023-05-20T03:26:01.829Z,9
2023-05-20T03:27:01.762Z,9
2023-05-20T03:28:01.869Z,9
2023-05-20T03:29:01.711Z,9
2023-05-20T03:30:01.826Z,9
2023-05-20T03:31:02.328Z,9
2023-05-20T03:32:02.252Z,9
2023-05-20T03:33:01.831Z,9
2023-05-20T03:34:02.316Z,9
2023-05-20T03:35:01.880Z,9
2023-05-20T03:36:02.681Z,9
2023-05-20T03:37:02.520Z,9
2023-05-20T03:38:02.529Z,9
2023-05-20T03:39:02.995Z,9
2023-05-20T03:40:02.654Z,9
2023-05-20T03:41:02.388Z,9
2023-05-20T03:42:02.408Z,9
2023-05-20T03:43:02.625Z,9
2023-05-20T03:44:02.373Z,9
2023-05-20T03:45:02.389Z,9
2023-05-20T03:46:02.481Z,9
2023-05-20T03:47:02.612Z,9
2023-05-20T03:48:02.513Z,9
2023-05-20T03:49:02.427Z,9
2023-05-20T03:50:02.392Z,9
2023-05-20T03:51:02.111Z,9
2023-05-20T03:52:02.080Z,9
2023-05-20T03:53:01.828Z,9
2023-05-20T03:54:01.848Z,9
2023-05-20T03:55:01.965Z,9
2023-05-20T03:56:02.706Z,9
2023-05-20T03:57:02.796Z,9
2023-05-20T03:58:02.772Z,9
2023-05-20T03:59:02.687Z,9
2023-05-20T04:00:02.782Z,9
2023-05-20T04:01:02.122Z,9
2023-05-20T04:02:02.164Z,9
2023-05-20T04:03:02.068Z,9
2023-05-20T04:04:02.145Z,9
2023-05-20T04:05:02.146Z,9
2023-05-20T04:06:02.232Z,9
2023-05-20T04:07:02.232Z,9
2023-05-20T04:08:02.353Z,10
2023-05-20T04:09:02.182Z,9
2023-05-20T04:10:02.221Z,9
2023-05-20T04:11:02.258Z,9
2023-05-20T04:12:02.248Z,9
2023-05-20T04:13:02.325Z,9
2023-05-20T04:14:02.116Z,9
2023-05-20T04:15:01.787Z,9
2023-05-20T04:16:02.661Z,9
2023-05-20T04:17:02.649Z,9
2023-05-20T04:18:02.531Z,9
2023-05-20T04:19:02.522Z,9
2023-05-20T04:20:02.649Z,10
2023-05-20T04:21:02.258Z,9
2023-05-20T04:22:02.077Z,9
2023-05-20T04:23:01.776Z,10
2023-05-20T04:24:01.975Z,9
2023-05-20T04:25:02.074Z,9
2023-05-20T04:26:02.324Z,9
2023-05-20T04:27:02.302Z,9
2023-05-20T04:28:02.117Z,9
2023-05-20T04:29:02.072Z,10
2023-05-20T04:30:01.792Z,9
2023-05-20T04:31:02.724Z,9
2023-05-20T04:32:02.556Z,10
2023-05-20T04:33:02.668Z,9
2023-05-20T04:34:02.089Z,9
2023-05-20T04:35:02.104Z,9
2023-05-20T04:36:02.913Z,9
2023-05-20T04:37:02.750Z,9
2023-05-20T04:38:02.851Z,9
2023-05-20T04:39:02.840Z,9
2023-05-20T04:40:02.905Z,9
2023-05-20T04:41:02.599Z,9
2023-05-20T04:42:02.447Z,9
2023-05-20T04:43:02.493Z,9
2023-05-20T04:44:02.558Z,9
2023-05-20T04:45:02.518Z,9
2023-05-20T04:46:02.624Z,10
2023-05-20T04:47:02.272Z,10
2023-05-20T04:48:02.402Z,9
2023-05-20T04:49:02.108Z,9
2023-05-20T04:50:02.216Z,9
2023-05-20T04:51:02.993Z,9
2023-05-20T04:52:02.488Z,9
2023-05-20T04:53:02.540Z,9
2023-05-20T04:54:02.718Z,10
2023-05-20T04:55:02.795Z,9
2023-05-20T04:56:03.004Z,9
2023-05-20T04:57:02.836Z,9
2023-05-20T04:58:02.506Z,9
2023-05-20T04:59:02.607Z,9
2023-05-20T05:00:02.738Z,9
2023-05-20T05:01:03.118Z,9
2023-05-20T05:02:02.988Z,9
2023-05-20T05:03:03.124Z,9
2023-05-20T05:04:03.057Z,9
2023-05-20T05:05:02.971Z,9
2023-05-20T05:06:03.297Z,9
2023-05-20T05:07:03.208Z,9
2023-05-20T05:08:03.236Z,9
2023-05-20T05:09:03.162Z,9
2023-05-20T05:10:03.462Z,9
2023-05-20T05:11:02.293Z,9
2023-05-20T05:12:02.394Z,9
2023-05-20T05:13:02.479Z,9
2023-05-20T05:14:02.533Z,9
2023-05-20T05:15:02.609Z,9
2023-05-20T05:16:02.849Z,9
2023-05-20T05:17:02.995Z,9
2023-05-20T05:18:03.138Z,9
2023-05-20T05:19:03.313Z,9
2023-05-20T05:20:03.343Z,10
2023-05-20T05:21:03.388Z,9
2023-05-20T05:22:02.663Z,9
2023-05-20T05:23:02.817Z,9
2023-05-20T05:24:02.950Z,9
2023-05-20T05:25:03.054Z,9
2023-05-20T05:26:02.495Z,9
2023-05-20T05:27:02.694Z,9
2023-05-20T05:28:02.765Z,9
2023-05-20T05:29:02.876Z,9
2023-05-20T05:30:03.019Z,9
2023-05-20T05:31:03.184Z,9
2023-05-20T05:32:03.030Z,9
2023-05-20T05:33:02.930Z,9
2023-05-20T05:34:02.766Z,9
2023-05-20T05:35:02.759Z,9
2023-05-20T05:36:02.919Z,9
2023-05-20T05:37:02.789Z,9
2023-05-20T05:38:02.964Z,9
2023-05-20T05:39:02.885Z,9
2023-05-20T05:40:02.853Z,9
2023-05-20T05:41:02.668Z,9
2023-05-20T05:42:02.615Z,9
2023-05-20T05:43:02.276Z,9
2023-05-20T05:44:02.499Z,9
2023-05-20T05:45:02.028Z,9
2023-05-20T05:46:02.219Z,9
2023-05-20T05:47:03.029Z,10
2023-05-20T05:48:02.652Z,10
2023-05-20T05:49:02.710Z,10
2023-05-20T05:50:02.840Z,9
2023-05-20T05:51:02.976Z,10
2023-05-20T05:52:03.300Z,10
2023-05-20T05:53:03.161Z,10
2023-05-20T05:54:02.739Z,9
2023-05-20T05:55:02.896Z,9
2023-05-20T05:56:02.775Z,10
2023-05-20T05:57:03.650Z,9
2023-05-20T05:58:02.543Z,10
2023-05-20T05:59:02.688Z,10
2023-05-20T06:00:02.446Z,10
2023-05-20T06:01:02.354Z,10
2023-05-20T06:02:03.201Z,10
2023-05-20T06:03:03.225Z,10
2023-05-20T06:04:03.434Z,10
2023-05-20T06:05:03.318Z,10
2023-05-20T06:06:03.192Z,10
2023-05-20T06:07:03.046Z,10
2023-05-20T06:08:02.955Z,10
2023-05-20T06:09:03.159Z,10
2023-05-20T06:10:03.201Z,10
2023-05-20T06:11:03.310Z,10
2023-05-20T06:12:03.483Z,10
2023-05-20T06:13:03.317Z,10
2023-05-20T06:14:03.432Z,10
2023-05-20T06:15:03.157Z,11
2023-05-20T06:16:03.302Z,11
2023-05-20T06:17:03.445Z,11
2023-05-20T06:18:03.521Z,11
2023-05-20T06:19:03.901Z,11
2023-05-20T06:20:03.291Z,10
2023-05-20T06:21:03.460Z,10
2023-05-20T06:22:03.459Z,11
2023-05-20T06:23:03.257Z,11
2023-05-20T06:24:03.431Z,11
2023-05-20T06:25:03.213Z,10
2023-05-20T06:26:03.397Z,11
2023-05-20T06:27:03.313Z,11
2023-05-20T06:28:03.421Z,10
2023-05-20T06:29:03.634Z,11
2023-05-20T06:30:03.118Z,11
2023-05-20T06:31:03.374Z,11
2023-05-20T06:32:03.303Z,10
2023-05-20T06:33:03.368Z,10
2023-05-20T06:34:02.707Z,11
2023-05-20T06:35:02.942Z,11
2023-05-20T06:36:03.248Z,10
2023-05-20T06:37:02.848Z,10
2023-05-20T06:38:03.513Z,11
2023-05-20T06:39:03.166Z,10
2023-05-20T06:40:03.000Z,11
2023-05-20T06:41:03.153Z,10
2023-05-20T06:42:02.416Z,10
2023-05-20T06:43:02.644Z,10
2023-05-20T06:44:02.884Z,10
2023-05-20T06:45:02.413Z,11
2023-05-20T06:46:02.723Z,10
2023-05-20T06:47:02.851Z,10
2023-05-20T06:48:03.119Z,11
2023-05-20T06:49:03.283Z,10
2023-05-20T06:50:03.518Z,10
2023-05-20T06:51:03.016Z,11
2023-05-20T06:52:03.730Z,11
2023-05-20T06:53:03.222Z,11
2023-05-20T06:54:03.639Z,10
2023-05-20T06:55:03.466Z,10
2023-05-20T06:56:03.699Z,10
2023-05-20T06:57:03.333Z,11
2023-05-20T06:58:03.483Z,10
2023-05-20T06:59:03.416Z,10
2023-05-20T07:00:02.872Z,10
2023-05-20T07:01:03.215Z,11
2023-05-20T07:02:02.752Z,10
2023-05-20T07:03:02.924Z,11
2023-05-20T07:04:02.602Z,11
2023-05-20T07:05:02.655Z,10
2023-05-20T07:06:02.654Z,10
2023-05-20T07:07:01.985Z,11
2023-05-20T07:08:02.080Z,11
2023-05-20T07:09:02.397Z,11
2023-05-20T07:10:02.404Z,10
2023-05-20T07:11:02.150Z,11
2023-05-20T07:12:02.332Z,10
2023-05-20T07:13:02.551Z,10
2023-05-20T07:14:02.834Z,10
2023-05-20T07:15:02.791Z,10
2023-05-20T07:16:02.726Z,10
2023-05-20T07:17:02.730Z,10
2023-05-20T07:18:03.076Z,10
2023-05-20T07:19:03.008Z,10
2023-05-20T07:20:03.214Z,10
2023-05-20T07:21:03.206Z,10
2023-05-20T07:22:02.457Z,10
2023-05-20T07:23:02.065Z,10
2023-05-20T07:24:02.381Z,10
2023-05-20T07:25:02.684Z,10
2023-05-20T07:26:02.114Z,10
2023-05-20T07:27:02.285Z,10
2023-05-20T07:28:02.499Z,10
2023-05-20T07:29:02.728Z,10
2023-05-20T07:30:02.153Z,10
2023-05-20T07:31:02.098Z,10
2023-05-20T07:32:02.464Z,10
2023-05-20T07:33:02.750Z,9
2023-05-20T07:34:02.467Z,10
2023-05-20T07:35:02.729Z,9
2023-05-20T07:36:02.741Z,9
2023-05-20T07:37:03.098Z,9
2023-05-20T07:38:02.759Z,9
2023-05-20T07:39:05.708Z,9
2023-05-20T07:40:02.925Z,9
2023-05-20T07:41:03.124Z,9
2023-05-20T07:42:02.405Z,9
2023-05-20T07:43:02.269Z,9
2023-05-20T07:44:02.464Z,9
2023-05-20T07:45:02.418Z,9
2023-05-20T07:46:02.462Z,9
2023-05-20T07:47:02.518Z,9
2023-05-20T07:48:02.670Z,9
2023-05-20T07:49:02.697Z,8
2023-05-20T07:50:02.343Z,8
2023-05-20T07:51:02.443Z,8
2023-05-20T07:52:03.277Z,8
2023-05-20T07:53:02.602Z,8
2023-05-20T07:54:02.623Z,8
2023-05-20T07:55:02.677Z,8
2023-05-20T07:56:02.866Z,8
2023-05-20T07:57:01.961Z,8
2023-05-20T07:58:02.136Z,8
2023-05-20T07:59:02.324Z,8
2023-05-20T08:00:02.369Z,8
2023-05-20T08:01:02.329Z,8
2023-05-20T08:02:02.613Z,8
2023-05-20T08:03:02.993Z,8
2023-05-20T08:04:02.395Z,8
2023-05-20T08:05:02.681Z,7
2023-05-20T08:06:03.047Z,7
2023-05-20T08:07:02.856Z,8
2023-05-20T08:08:02.725Z,8
2023-05-20T08:09:02.849Z,7
2023-05-20T08:10:03.119Z,7
2023-05-20T08:11:02.711Z,8
2023-05-20T08:12:02.399Z,7
2023-05-20T08:13:02.685Z,8
2023-05-20T08:14:02.968Z,8
2023-05-20T08:15:02.787Z,7
2023-05-20T08:16:02.326Z,7
2023-05-20T08:17:03.212Z,8
2023-05-20T08:18:03.509Z,7
2023-05-20T08:19:03.381Z,7
2023-05-20T08:20:02.951Z,7
2023-05-20T08:21:03.096Z,8
2023-05-20T08:22:02.963Z,8
2023-05-20T08:23:03.061Z,7
2023-05-20T08:24:03.294Z,8
2023-05-20T08:25:03.470Z,7
2023-05-20T08:26:03.101Z,7
2023-05-20T08:27:03.339Z,8
2023-05-20T08:28:03.153Z,8
2023-05-20T08:29:03.404Z,7
2023-05-20T08:30:03.332Z,7
2023-05-20T08:31:03.500Z,8
2023-05-20T08:32:02.652Z,8
2023-05-20T08:33:02.880Z,8
2023-05-20T08:34:02.250Z,7
2023-05-20T08:35:02.538Z,8
2023-05-20T08:36:02.576Z,8
2023-05-20T08:37:02.664Z,8
2023-05-20T08:38:02.917Z,8
2023-05-20T08:39:02.414Z,8
2023-05-20T08:40:02.559Z,8
2023-05-20T08:41:04.056Z,8
2023-05-20T08:42:02.820Z,8
2023-05-20T08:43:02.621Z,8
2023-05-20T08:44:02.820Z,8
2023-05-20T08:45:02.620Z,8
2023-05-20T08:46:02.651Z,7
2023-05-20T08:47:03.292Z,8
2023-05-20T08:48:03.406Z,8
2023-05-20T08:49:03.670Z,7
2023-05-20T08:50:03.238Z,7
2023-05-20T08:51:03.412Z,7
2023-05-20T08:52:03.416Z,7
2023-05-20T08:53:03.520Z,8
2023-05-20T08:54:03.359Z,7
2023-05-20T08:55:02.827Z,7
2023-05-20T08:56:03.019Z,7
2023-05-20T08:57:03.266Z,7
2023-05-20T08:58:03.495Z,7
2023-05-20T08:59:03.010Z,7
2023-05-20T09:00:03.271Z,7
2023-05-20T09:01:03.507Z,6
2023-05-20T09:02:03.593Z,7
2023-05-20T09:03:03.602Z,7
2023-05-20T09:04:03.586Z,7
2023-05-20T09:05:03.130Z,7
2023-05-20T09:06:03.057Z,6
2023-05-20T09:07:03.088Z,7
2023-05-20T09:08:05.067Z,6
2023-05-20T09:09:02.607Z,6
2023-05-20T09:10:03.031Z,7
2023-05-20T09:11:02.957Z,6
2023-05-20T09:12:02.914Z,6
2023-05-20T09:13:03.144Z,7
2023-05-20T09:14:03.091Z,6
2023-05-20T09:15:02.685Z,6
2023-05-20T09:16:02.787Z,7
2023-05-20T09:17:03.628Z,6
2023-05-20T09:18:03.145Z,6
2023-05-20T09:19:03.550Z,6
2023-05-20T09:20:03.473Z,6
2023-05-20T09:21:03.698Z,6
2023-05-20T09:22:02.684Z,6
2023-05-20T09:23:02.220Z,6
2023-05-20T09:24:02.365Z,6
2023-05-20T09:25:02.791Z,6
2023-05-20T09:26:02.807Z,6
2023-05-20T09:27:02.738Z,5
2023-05-20T09:28:02.580Z,6
2023-05-20T09:29:02.697Z,6
2023-05-20T09:30:02.248Z,6
2023-05-20T09:31:02.290Z,6
2023-05-20T09:32:02.997Z,6
2023-05-20T09:33:02.973Z,6
2023-05-20T09:34:03.073Z,6
2023-05-20T09:35:02.974Z,6
2023-05-20T09:36:02.903Z,6
2023-05-20T09:37:02.757Z,6
2023-05-20T09:38:02.897Z,6
2023-05-20T09:39:02.947Z,6
2023-05-20T09:40:03.035Z,6
2023-05-20T09:41:03.239Z,6
2023-05-20T09:42:04.073Z,6
2023-05-20T09:43:03.079Z,6
2023-05-20T09:44:03.187Z,6
2023-05-20T09:45:03.097Z,6
2023-05-20T09:46:03.188Z,6
2023-05-20T09:47:03.247Z,5
2023-05-20T09:48:02.904Z,6
2023-05-20T09:49:02.959Z,6
2023-05-20T09:50:03.206Z,6
2023-05-20T09:51:03.310Z,6
2023-05-20T09:52:03.552Z,6
2023-05-20T09:53:03.515Z,6
2023-05-20T09:54:03.631Z,5
2023-05-20T09:55:03.496Z,5
2023-05-20T09:56:03.776Z,5
2023-05-20T09:57:03.629Z,5
2023-05-20T09:58:03.205Z,6
2023-05-20T09:59:03.227Z,5
2023-05-20T10:00:03.604Z,6
2023-05-20T10:01:03.740Z,5
2023-05-20T10:02:03.825Z,6
2023-05-20T10:03:03.684Z,5
2023-05-20T10:04:03.684Z,5
2023-05-20T10:05:03.741Z,5
2023-05-20T10:06:03.209Z,5
2023-05-20T10:07:03.130Z,5
2023-05-20T10:08:02.592Z,5
2023-05-20T10:09:02.858Z,5
2023-05-20T10:10:03.204Z,5
2023-05-20T10:11:03.122Z,5
2023-05-20T10:12:03.255Z,5
2023-05-20T10:13:03.173Z,5
2023-05-20T10:14:02.679Z,5
2023-05-20T10:15:03.215Z,5
2023-05-20T10:16:02.719Z,5
2023-05-20T10:17:03.756Z,5
2023-05-20T10:18:03.188Z,5
2023-05-20T10:19:03.530Z,5
2023-05-20T10:20:05.883Z,5
2023-05-20T10:21:03.721Z,5
2023-05-20T10:22:03.332Z,5
2023-05-20T10:23:03.228Z,5
2023-05-20T10:24:03.214Z,5
2023-05-20T10:25:03.060Z,5
2023-05-20T10:26:03.290Z,5
2023-05-20T10:27:03.841Z,5
2023-05-20T10:28:03.413Z,5
2023-05-20T10:29:03.802Z,5
2023-05-20T10:30:03.922Z,5
2023-05-20T10:31:03.357Z,5
2023-05-20T10:32:03.442Z,5
2023-05-20T10:33:03.840Z,5
2023-05-20T10:34:03.436Z,5
2023-05-20T10:35:03.522Z,5
2023-05-20T10:36:03.762Z,5
2023-05-20T10:37:03.007Z,5
2023-05-20T10:38:03.025Z,5
2023-05-20T10:39:03.166Z,5
2023-05-20T10:40:03.281Z,5
2023-05-20T10:41:03.632Z,5
2023-05-20T10:42:02.606Z,5
2023-05-20T10:43:02.982Z,5
2023-05-20T10:44:03.059Z,5
2023-05-20T10:45:03.150Z,5
2023-05-20T10:46:05.141Z,5
2023-05-20T10:47:23.606Z,5
2023-05-20T10:48:02.758Z,5
2023-05-20T10:49:03.364Z,5
2023-05-20T10:50:02.687Z,5
2023-05-20T10:51:02.758Z,5
2023-05-20T10:52:02.831Z,5
2023-05-20T10:53:03.051Z,5
2023-05-20T10:54:03.245Z,5
2023-05-20T10:55:03.267Z,5
2023-05-20T10:56:02.702Z,5
2023-05-20T10:57:02.918Z,5
2023-05-20T10:58:03.156Z,5
2023-05-20T10:59:03.208Z,5
2023-05-20T11:00:03.279Z,5
2023-05-20T11:01:03.010Z,5
2023-05-20T11:02:03.580Z,5
2023-05-20T11:03:03.737Z,5
2023-05-20T11:04:03.809Z,5
2023-05-20T11:05:03.824Z,5
2023-05-20T11:06:03.605Z,5
2023-05-20T11:07:03.010Z,5
2023-05-20T11:08:04.376Z,5
2023-05-20T11:09:03.093Z,5
2023-05-20T11:10:03.453Z,5
2023-05-20T11:11:03.424Z,5
2023-05-20T11:12:02.604Z,5
2023-05-20T11:13:03.055Z,5
2023-05-20T11:14:03.078Z,5
2023-05-20T11:15:02.988Z,5
2023-05-20T11:16:02.633Z,5
2023-05-20T11:17:03.320Z,5
2023-05-20T11:18:03.623Z,5
2023-05-20T11:19:03.200Z,5
2023-05-20T11:20:03.396Z,5
2023-05-20T11:21:03.511Z,5
2023-05-20T11:22:02.954Z,5
2023-05-20T11:23:03.036Z,5
2023-05-20T11:24:03.256Z,5
2023-05-20T11:25:03.264Z,5
2023-05-20T11:26:02.930Z,5
2023-05-20T11:27:03.484Z,5
2023-05-20T11:28:03.365Z,5
2023-05-20T11:29:03.563Z,5
2023-05-20T11:30:03.433Z,5
2023-05-20T11:31:03.011Z,5
2023-05-20T11:32:03.326Z,5
2023-05-20T11:33:03.663Z,5
2023-05-20T11:34:03.519Z,5
2023-05-20T11:35:03.664Z,5
2023-05-20T11:36:06.423Z,5
2023-05-20T11:37:03.542Z,5
2023-05-20T11:38:03.791Z,5
2023-05-20T11:39:03.366Z,5
2023-05-20T11:40:03.976Z,5
2023-05-20T11:41:03.799Z,5
2023-05-20T11:42:03.015Z,5
2023-05-20T11:43:02.802Z,5
2023-05-20T11:44:02.947Z,5
2023-05-20T11:45:03.034Z,5
2023-05-20T11:46:03.229Z,5
2023-05-20T11:47:03.429Z,5
2023-05-20T11:48:03.817Z,5
2023-05-20T11:49:03.645Z,5
2023-05-20T11:50:03.737Z,5
2023-05-20T11:51:03.472Z,5
2023-05-20T11:52:03.715Z,5
2023-05-20T11:53:03.557Z,5
2023-05-20T11:54:03.780Z,5
2023-05-20T11:55:03.806Z,5
2023-05-20T11:56:03.943Z,5
2023-05-20T11:57:05.649Z,5
2023-05-20T11:58:03.079Z,6
2023-05-20T11:59:03.194Z,5
2023-05-20T12:00:03.282Z,5
2023-05-20T12:01:17.894Z,5
2023-05-20T12:02:02.840Z,5
2023-05-20T12:03:03.089Z,6
2023-05-20T12:04:03.178Z,5
2023-05-20T12:05:02.966Z,5
2023-05-20T12:06:02.769Z,5
2023-05-20T12:07:02.904Z,5
2023-05-20T12:08:02.968Z,6
2023-05-20T12:09:03.220Z,6
2023-05-20T12:10:03.145Z,5
2023-05-20T12:11:03.099Z,5
2023-05-20T12:12:03.480Z,5
2023-05-20T12:13:03.003Z,5
2023-05-20T12:14:03.222Z,5
2023-05-20T12:15:03.364Z,5
2023-05-20T12:16:03.541Z,5
2023-05-20T12:17:02.958Z,5
2023-05-20T12:18:02.633Z,5
2023-05-20T12:19:02.848Z,5
2023-05-20T12:20:02.971Z,5
2023-05-20T12:21:02.753Z,5
2023-05-20T12:22:03.005Z,5
2023-05-20T12:23:03.113Z,6
2023-05-20T12:24:03.194Z,5
2023-05-20T12:25:02.661Z,5
2023-05-20T12:26:02.780Z,5
2023-05-20T12:27:03.191Z,5
2023-05-20T12:28:03.293Z,5
2023-05-20T12:29:03.206Z,5
2023-05-20T12:30:03.354Z,5
2023-05-20T12:31:02.780Z,5
2023-05-20T12:32:02.971Z,6
2023-05-20T12:33:02.977Z,6
2023-05-20T12:34:03.211Z,6
2023-05-20T12:35:02.569Z,5
2023-05-20T12:36:02.413Z,6
2023-05-20T12:37:03.367Z,6
2023-05-20T12:38:03.401Z,5
2023-05-20T12:39:02.864Z,5
2023-05-20T12:40:03.149Z,6
2023-05-20T12:41:03.046Z,5
2023-05-20T12:42:03.032Z,5
2023-05-20T12:43:02.934Z,6
2023-05-20T12:44:02.495Z,6
2023-05-20T12:45:02.826Z,5
2023-05-20T12:46:03.010Z,5
2023-05-20T12:47:03.265Z,5
2023-05-20T12:48:02.798Z,5
2023-05-20T12:49:03.093Z,5
2023-05-20T12:50:03.221Z,5
2023-05-20T12:51:03.067Z,6
2023-05-20T12:52:08.433Z,5
2023-05-20T12:53:03.109Z,6
2023-05-20T12:54:03.454Z,5
2023-05-20T12:55:02.845Z,5
2023-05-20T12:56:03.059Z,5
2023-05-20T12:57:02.953Z,5
2023-05-20T12:58:02.621Z,5
2023-05-20T12:59:02.991Z,5
2023-05-20T13:00:02.697Z,5
2023-05-20T13:01:02.865Z,5
2023-05-20T13:02:02.664Z,5
2023-05-20T13:03:02.256Z,5
2023-05-20T13:04:02.405Z,5
2023-05-20T13:05:02.504Z,5
2023-05-20T13:06:04.000Z,5
2023-05-20T13:07:03.038Z,5
2023-05-20T13:08:03.032Z,5
2023-05-20T13:09:02.880Z,5
2023-05-20T13:10:02.494Z,5
2023-05-20T13:11:02.919Z,5
2023-05-20T13:12:01.952Z,5
2023-05-20T13:13:02.157Z,5
2023-05-20T13:14:02.390Z,5
2023-05-20T13:15:02.510Z,5
2023-05-20T13:16:02.134Z,5
2023-05-20T13:17:02.460Z,5
2023-05-20T13:18:02.895Z,5
2023-05-20T13:19:02.604Z,5
2023-05-20T13:20:02.722Z,5
2023-05-20T13:21:02.997Z,5
2023-05-20T13:22:02.033Z,5
2023-05-20T13:23:02.305Z,5
2023-05-20T13:24:02.585Z,5
2023-05-20T13:25:02.263Z,5
2023-05-20T13:26:02.259Z,5
2023-05-20T13:27:02.591Z,5
2023-05-20T13:28:02.857Z,5
2023-05-20T13:29:03.146Z,5
2023-05-20T13:30:02.993Z,5
2023-05-20T13:31:02.620Z,5
2023-05-20T13:32:02.177Z,5
2023-05-20T13:33:02.036Z,5
2023-05-20T13:34:01.678Z,5
2023-05-20T13:35:02.012Z,5
2023-05-20T13:36:02.131Z,5
2023-05-20T13:37:02.377Z,5
2023-05-20T13:38:02.330Z,5
2023-05-20T13:39:02.535Z,5
2023-05-20T13:40:02.775Z,5
2023-05-20T13:41:02.838Z,5
2023-05-20T13:42:02.280Z,5
2023-05-20T13:43:02.415Z,5
2023-05-20T13:44:02.001Z,5
2023-05-20T13:45:02.213Z,5
2023-05-20T13:46:02.454Z,5
2023-05-20T13:47:02.226Z,5
2023-05-20T13:48:02.377Z,5
2023-05-20T13:49:02.487Z,5
2023-05-20T13:50:03.257Z,5
2023-05-20T13:51:02.354Z,5
2023-05-20T13:52:02.635Z,5
2023-05-20T13:53:02.416Z,5
2023-05-20T13:54:02.444Z,5
2023-05-20T13:55:02.614Z,5
2023-05-20T13:56:02.820Z,5
2023-05-20T13:57:02.802Z,5
2023-05-20T13:58:03.062Z,5
2023-05-20T13:59:03.170Z,5
2023-05-20T14:00:02.839Z,5
2023-05-20T14:01:03.111Z,5
2023-05-20T14:02:02.608Z,5
2023-05-20T14:03:02.872Z,5
2023-05-20T14:04:02.293Z,5
2023-05-20T14:05:02.799Z,5
2023-05-20T14:06:02.425Z,5
2023-05-20T14:07:02.570Z,5
2023-05-20T14:08:02.817Z,5
2023-05-20T14:09:03.089Z,5
2023-05-20T14:10:02.921Z,5
2023-05-20T14:11:02.424Z,5
2023-05-20T14:12:02.241Z,5
2023-05-20T14:13:02.516Z,5
2023-05-20T14:14:02.666Z,5
2023-05-20T14:15:02.629Z,5
2023-05-20T14:16:02.304Z,5
2023-05-20T14:17:02.583Z,5
2023-05-20T14:18:02.948Z,5
2023-05-20T14:19:02.825Z,5
2023-05-20T14:20:02.454Z,5
2023-05-20T14:21:02.785Z,5
2023-05-20T14:22:02.049Z,5
2023-05-20T14:23:01.847Z,5
2023-05-20T14:24:01.754Z,5
2023-05-20T14:25:02.363Z,5
2023-05-20T14:26:02.228Z,5
2023-05-20T14:27:02.422Z,5
2023-05-20T14:28:02.595Z,5
2023-05-20T14:29:02.789Z,5
2023-05-20T14:30:02.767Z,5
2023-05-20T14:31:02.163Z,5
2023-05-20T14:32:02.717Z,4
2023-05-20T14:33:03.048Z,5
2023-05-20T14:34:02.965Z,4
2023-05-20T14:35:02.451Z,5
2023-05-20T14:36:02.999Z,5
2023-05-20T14:37:02.268Z,5
2023-05-20T14:38:02.444Z,5
2023-05-20T14:39:02.488Z,5
2023-05-20T14:40:01.844Z,5
2023-05-20T14:41:01.932Z,5
2023-05-20T14:42:02.734Z,5
2023-05-20T14:43:02.927Z,5